sensor_id;sensor_type;location;lat;lon;timestamp;pressure;altitude;pressure_sealevel;temperature;humidity
6851;BME280;3464;42.728;23.296;2022-10-19T00:00:25;95903.78;;;12.43;55.32
6851;BME280;3464;42.728;23.296;2022-10-19T00:02:52;95901.19;;;12.37;55.32
6851;BME280;3464;42.728;23.296;2022-10-19T00:05:18;95895.53;;;12.56;54.92
6851;BME280;3464;42.728;23.296;2022-10-19T00:07:45;95902.61;;;12.50;54.87
6851;BME280;3464;42.728;23.296;2022-10-19T00:10:11;95899.40;;;12.29;55.07
6851;BME280;3464;42.728;23.296;2022-10-19T00:12:38;95898.67;;;12.05;55.79
6851;BME280;3464;42.728;23.296;2022-10-19T00:15:05;95898.63;;;12.00;55.91
6851;BME280;3464;42.728;23.296;2022-10-19T00:17:33;95892.76;;;12.03;55.74
6851;BME280;3464;42.728;23.296;2022-10-19T00:19:58;95892.30;;;11.98;55.73
6851;BME280;3464;42.728;23.296;2022-10-19T00:22:25;95888.37;;;11.87;55.90
6851;BME280;3464;42.728;23.296;2022-10-19T00:24:51;95883.75;;;11.88;55.88
6851;BME280;3464;42.728;23.296;2022-10-19T00:27:18;95879.02;;;11.81;56.30
6851;BME280;3464;42.728;23.296;2022-10-19T00:29:45;95880.27;;;11.79;56.23
6851;BME280;3464;42.728;23.296;2022-10-19T00:32:12;95871.30;;;11.43;57.13
6851;BME280;3464;42.728;23.296;2022-10-19T00:34:39;95865.92;;;11.22;58.00
6851;BME280;3464;42.728;23.296;2022-10-19T00:37:05;95861.57;;;11.12;58.16
6851;BME280;3464;42.728;23.296;2022-10-19T00:39:32;95860.59;;;11.02;58.48
6851;BME280;3464;42.728;23.296;2022-10-19T00:41:58;95857.47;;;10.91;58.73
6851;BME280;3464;42.728;23.296;2022-10-19T00:47:24;95852.70;;;10.83;59.15
6851;BME280;3464;42.728;23.296;2022-10-19T00:49:51;95847.10;;;10.74;58.95
6851;BME280;3464;42.728;23.296;2022-10-19T00:52:19;95851.20;;;10.69;59.20
6851;BME280;3464;42.728;23.296;2022-10-19T00:54:44;95844.42;;;10.64;59.48
6851;BME280;3464;42.728;23.296;2022-10-19T00:57:11;95844.38;;;10.61;59.41
6851;BME280;3464;42.728;23.296;2022-10-19T00:59:38;95833.98;;;10.68;59.37
6851;BME280;3464;42.728;23.296;2022-10-19T01:02:04;95833.55;;;10.67;59.44
6851;BME280;3464;42.728;23.296;2022-10-19T01:04:31;95828.33;;;10.57;59.56
6851;BME280;3464;42.728;23.296;2022-10-19T01:06:57;95821.73;;;10.64;59.41
6851;BME280;3464;42.728;23.296;2022-10-19T01:09:24;95821.69;;;10.60;59.55
6851;BME280;3464;42.728;23.296;2022-10-19T01:12:13;95816.55;;;10.54;59.67
6851;BME280;3464;42.728;23.296;2022-10-19T01:15:00;95814.45;;;10.54;59.58
6851;BME280;3464;42.728;23.296;2022-10-19T01:17:40;95812.58;;;10.43;60.23
6851;BME280;3464;42.728;23.296;2022-10-19T01:20:07;95810.38;;;10.38;59.95
6851;BME280;3464;42.728;23.296;2022-10-19T01:22:54;95813.38;;;10.41;59.98
6851;BME280;3464;42.728;23.296;2022-10-19T01:25:28;95808.28;;;10.39;59.84
6851;BME280;3464;42.728;23.296;2022-10-19T01:27:59;95808.34;;;10.42;59.90
6851;BME280;3464;42.728;23.296;2022-10-19T01:30:35;95805.17;;;10.29;60.05
6851;BME280;3464;42.728;23.296;2022-10-19T01:33:01;95802.14;;;10.23;60.14
6851;BME280;3464;42.728;23.296;2022-10-19T01:35:38;95797.03;;;10.19;60.33
6851;BME280;3464;42.728;23.296;2022-10-19T01:38:04;95797.17;;;10.26;60.11
6851;BME280;3464;42.728;23.296;2022-10-19T01:40:32;95793.83;;;10.27;60.08
6851;BME280;3464;42.728;23.296;2022-10-19T01:42:58;95787.93;;;10.27;60.14
6851;BME280;3464;42.728;23.296;2022-10-19T01:45:29;95792.12;;;10.50;59.96
6851;BME280;3464;42.728;23.296;2022-10-19T01:48:00;95788.75;;;10.49;59.82
6851;BME280;3464;42.728;23.296;2022-10-19T01:50:28;95782.61;;;10.33;60.01
6851;BME280;3464;42.728;23.296;2022-10-19T01:52:53;95785.53;;;10.32;60.12
6851;BME280;3464;42.728;23.296;2022-10-19T01:55:19;95781.95;;;10.43;59.79
6851;BME280;3464;42.728;23.296;2022-10-19T01:57:47;95775.58;;;10.38;59.74
6851;BME280;3464;42.728;23.296;2022-10-19T02:00:13;95778.06;;;10.36;59.82
6851;BME280;3464;42.728;23.296;2022-10-19T02:02:41;95778.52;;;10.39;59.80
6851;BME280;3464;42.728;23.296;2022-10-19T02:05:06;95780.06;;;10.32;59.80
6851;BME280;3464;42.728;23.296;2022-10-19T02:07:33;95786.33;;;10.30;60.20
6851;BME280;3464;42.728;23.296;2022-10-19T02:10:00;95781.76;;;10.10;60.47
6851;BME280;3464;42.728;23.296;2022-10-19T02:12:27;95780.83;;;9.85;61.27
6851;BME280;3464;42.728;23.296;2022-10-19T02:14:57;95780.94;;;10.10;60.26
6851;BME280;3464;42.728;23.296;2022-10-19T02:17:21;95778.64;;;10.02;60.19
6851;BME280;3464;42.728;23.296;2022-10-19T02:19:47;95776.73;;;10.10;60.12
6851;BME280;3464;42.728;23.296;2022-10-19T02:22:13;95770.39;;;10.07;60.16
6851;BME280;3464;42.728;23.296;2022-10-19T02:24:40;95767.09;;;10.11;60.28
6851;BME280;3464;42.728;23.296;2022-10-19T02:27:06;95771.13;;;10.03;60.56
6851;BME280;3464;42.728;23.296;2022-10-19T02:29:34;95773.12;;;9.99;60.39
6851;BME280;3464;42.728;23.296;2022-10-19T02:32:00;95771.89;;;9.99;60.42
6851;BME280;3464;42.728;23.296;2022-10-19T02:34:27;95769.32;;;9.96;60.41
6851;BME280;3464;42.728;23.296;2022-10-19T02:36:53;95778.89;;;9.93;60.56
6851;BME280;3464;42.728;23.296;2022-10-19T02:39:20;95773.55;;;9.99;60.67
6851;BME280;3464;42.728;23.296;2022-10-19T02:41:48;95783.86;;;9.90;60.74
6851;BME280;3464;42.728;23.296;2022-10-19T02:44:23;95778.67;;;10.03;60.29
6851;BME280;3464;42.728;23.296;2022-10-19T02:46:51;95771.95;;;10.03;60.27
6851;BME280;3464;42.728;23.296;2022-10-19T02:49:15;95770.27;;;10.01;60.32
6851;BME280;3464;42.728;23.296;2022-10-19T02:54:20;95769.44;;;10.03;60.39
6851;BME280;3464;42.728;23.296;2022-10-19T02:56:47;95767.20;;;9.96;60.45
6851;BME280;3464;42.728;23.296;2022-10-19T02:59:13;95767.73;;;9.79;60.93
6851;BME280;3464;42.728;23.296;2022-10-19T03:01:40;95773.44;;;9.70;61.45
6851;BME280;3464;42.728;23.296;2022-10-19T03:04:06;95765.38;;;9.87;61.14
6851;BME280;3464;42.728;23.296;2022-10-19T03:06:33;95768.03;;;9.95;60.82
6851;BME280;3464;42.728;23.296;2022-10-19T03:08:59;95773.41;;;9.91;60.91
6851;BME280;3464;42.728;23.296;2022-10-19T03:11:26;95774.17;;;9.87;60.99
6851;BME280;3464;42.728;23.296;2022-10-19T03:13:52;95776.05;;;9.76;61.01
6851;BME280;3464;42.728;23.296;2022-10-19T03:16:19;95773.74;;;9.65;61.63
6851;BME280;3464;42.728;23.296;2022-10-19T03:18:46;95776.65;;;9.65;61.30
6851;BME280;3464;42.728;23.296;2022-10-19T03:21:12;95770.31;;;9.82;60.81
6851;BME280;3464;42.728;23.296;2022-10-19T03:23:38;95771.56;;;9.82;60.65
6851;BME280;3464;42.728;23.296;2022-10-19T03:26:05;95768.53;;;9.77;60.55
6851;BME280;3464;42.728;23.296;2022-10-19T03:28:31;95761.70;;;9.70;60.60
6851;BME280;3464;42.728;23.296;2022-10-19T03:30:58;95763.75;;;9.69;60.61
6851;BME280;3464;42.728;23.296;2022-10-19T03:33:25;95762.00;;;9.65;60.76
6851;BME280;3464;42.728;23.296;2022-10-19T03:38:33;95758.27;;;9.67;60.45
6851;BME280;3464;42.728;23.296;2022-10-19T03:41:00;95762.00;;;9.64;60.42
6851;BME280;3464;42.728;23.296;2022-10-19T03:43:26;95763.92;;;9.57;60.37
6851;BME280;3464;42.728;23.296;2022-10-19T03:45:53;95762.55;;;9.51;60.55
6851;BME280;3464;42.728;23.296;2022-10-19T03:48:19;95759.94;;;9.46;60.55
6851;BME280;3464;42.728;23.296;2022-10-19T03:50:46;95752.17;;;9.36;60.67
6851;BME280;3464;42.728;23.296;2022-10-19T03:53:13;95760.97;;;9.35;60.93
6851;BME280;3464;42.728;23.296;2022-10-19T03:55:39;95761.33;;;9.33;61.02
6851;BME280;3464;42.728;23.296;2022-10-19T03:58:06;95756.50;;;9.41;60.77
6851;BME280;3464;42.728;23.296;2022-10-19T04:00:32;95757.50;;;9.30;60.87
6851;BME280;3464;42.728;23.296;2022-10-19T04:02:59;95764.53;;;9.25;61.15
6851;BME280;3464;42.728;23.296;2022-10-19T04:05:25;95751.68;;;9.31;60.84
6851;BME280;3464;42.728;23.296;2022-10-19T04:07:52;95754.78;;;9.20;61.00
6851;BME280;3464;42.728;23.296;2022-10-19T04:10:18;95751.05;;;9.22;60.85
6851;BME280;3464;42.728;23.296;2022-10-19T04:12:45;95756.52;;;9.04;61.98
6851;BME280;3464;42.728;23.296;2022-10-19T04:15:11;95754.58;;;9.10;61.62
6851;BME280;3464;42.728;23.296;2022-10-19T04:17:38;95751.05;;;9.22;61.33
6851;BME280;3464;42.728;23.296;2022-10-19T04:20:05;95752.63;;;9.17;61.31
6851;BME280;3464;42.728;23.296;2022-10-19T04:22:31;95743.02;;;9.37;61.16
6851;BME280;3464;42.728;23.296;2022-10-19T04:24:58;95745.56;;;9.39;61.07
6851;BME280;3464;42.728;23.296;2022-10-19T04:27:24;95741.45;;;9.43;61.05
6851;BME280;3464;42.728;23.296;2022-10-19T04:29:51;95741.45;;;9.43;61.07
6851;BME280;3464;42.728;23.296;2022-10-19T04:32:19;95742.88;;;9.52;61.01
6851;BME280;3464;42.728;23.296;2022-10-19T04:34:45;95744.77;;;9.41;61.18
6851;BME280;3464;42.728;23.296;2022-10-19T04:37:12;95735.14;;;9.41;60.95
6851;BME280;3464;42.728;23.296;2022-10-19T04:39:38;95737.23;;;9.42;60.88
6851;BME280;3464;42.728;23.296;2022-10-19T04:42:05;95744.80;;;9.03;62.12
6851;BME280;3464;42.728;23.296;2022-10-19T04:44:32;95747.58;;;9.17;62.00
6851;BME280;3464;42.728;23.296;2022-10-19T04:46:58;95744.20;;;9.34;61.30
6851;BME280;3464;42.728;23.296;2022-10-19T04:49:25;95736.37;;;9.40;60.95
6851;BME280;3464;42.728;23.296;2022-10-19T04:51:51;95746.78;;;9.18;61.03
6851;BME280;3464;42.728;23.296;2022-10-19T04:54:18;95740.11;;;9.39;60.25
6851;BME280;3464;42.728;23.296;2022-10-19T04:56:45;95742.05;;;9.51;59.73
6851;BME280;3464;42.728;23.296;2022-10-19T04:59:11;95742.31;;;9.45;59.71
6851;BME280;3464;42.728;23.296;2022-10-19T05:01:38;95736.77;;;9.61;59.29
6851;BME280;3464;42.728;23.296;2022-10-19T05:04:05;95733.73;;;9.77;58.23
6851;BME280;3464;42.728;23.296;2022-10-19T05:06:32;95732.26;;;10.07;58.33
6851;BME280;3464;42.728;23.296;2022-10-19T05:08:58;95728.24;;;10.18;57.62
6851;BME280;3464;42.728;23.296;2022-10-19T05:11:25;95724.72;;;10.57;57.81
6851;BME280;3464;42.728;23.296;2022-10-19T05:13:52;95726.02;;;11.48;56.38
6851;BME280;3464;42.728;23.296;2022-10-19T05:16:20;95721.61;;;12.46;54.19
6851;BME280;3464;42.728;23.296;2022-10-19T05:18:47;95725.47;;;13.08;53.46
6851;BME280;3464;42.728;23.296;2022-10-19T05:21:13;95723.28;;;13.74;51.54
6851;BME280;3464;42.728;23.296;2022-10-19T05:23:40;95721.38;;;14.54;49.70
6851;BME280;3464;42.728;23.296;2022-10-19T05:26:09;95726.75;;;15.54;48.74
6851;BME280;3464;42.728;23.296;2022-10-19T05:28:36;95726.68;;;15.74;47.45
6851;BME280;3464;42.728;23.296;2022-10-19T05:31:05;95727.86;;;15.97;47.21
6851;BME280;3464;42.728;23.296;2022-10-19T05:33:31;95727.97;;;15.68;46.50
6851;BME280;3464;42.728;23.296;2022-10-19T05:35:58;95722.56;;;15.47;46.88
6851;BME280;3464;42.728;23.296;2022-10-19T05:38:25;95726.58;;;15.94;46.26
6851;BME280;3464;42.728;23.296;2022-10-19T05:40:52;95731.72;;;16.61;46.12
6851;BME280;3464;42.728;23.296;2022-10-19T05:43:18;95722.19;;;16.87;43.95
6851;BME280;3464;42.728;23.296;2022-10-19T05:45:45;95721.88;;;17.19;43.76
6851;BME280;3464;42.728;23.296;2022-10-19T05:48:12;95717.59;;;17.26;43.76
6851;BME280;3464;42.728;23.296;2022-10-19T05:50:39;95712.84;;;17.73;42.87
6851;BME280;3464;42.728;23.296;2022-10-19T05:53:05;95718.89;;;17.64;41.52
6851;BME280;3464;42.728;23.296;2022-10-19T05:55:33;95719.88;;;17.88;42.24
6851;BME280;3464;42.728;23.296;2022-10-19T05:57:59;95720.98;;;18.32;41.21
6851;BME280;3464;42.728;23.296;2022-10-19T06:00:26;95721.05;;;18.27;40.46
6851;BME280;3464;42.728;23.296;2022-10-19T06:02:53;95726.96;;;17.98;40.84
6851;BME280;3464;42.728;23.296;2022-10-19T06:05:19;95722.70;;;17.67;41.01
6851;BME280;3464;42.728;23.296;2022-10-19T06:07:46;95723.09;;;17.25;41.04
6851;BME280;3464;42.728;23.296;2022-10-19T06:10:12;95729.36;;;16.30;42.66
6851;BME280;3464;42.728;23.296;2022-10-19T06:12:39;95732.98;;;15.86;43.35
6851;BME280;3464;42.728;23.296;2022-10-19T06:15:07;95734.55;;;16.08;43.29
6851;BME280;3464;42.728;23.296;2022-10-19T06:17:33;95742.84;;;15.21;44.59
6851;BME280;3464;42.728;23.296;2022-10-19T06:20:00;95747.55;;;14.68;45.43
6851;BME280;3464;42.728;23.296;2022-10-19T06:22:27;95750.93;;;15.01;45.05
6851;BME280;3464;42.728;23.296;2022-10-19T06:24:53;95749.59;;;15.57;44.03
6851;BME280;3464;42.728;23.296;2022-10-19T06:27:20;95738.86;;;15.93;43.37
6851;BME280;3464;42.728;23.296;2022-10-19T06:29:46;95747.92;;;15.33;44.38
6851;BME280;3464;42.728;23.296;2022-10-19T06:32:13;95748.39;;;14.50;45.45
6851;BME280;3464;42.728;23.296;2022-10-19T06:34:40;95755.96;;;15.18;44.55
6851;BME280;3464;42.728;23.296;2022-10-19T06:37:07;95757.64;;;15.30;44.32
6851;BME280;3464;42.728;23.296;2022-10-19T06:39:33;95756.80;;;15.29;44.24
6851;BME280;3464;42.728;23.296;2022-10-19T06:42:00;95752.59;;;15.38;44.40
6851;BME280;3464;42.728;23.296;2022-10-19T06:44:26;95746.17;;;15.62;44.24
6851;BME280;3464;42.728;23.296;2022-10-19T06:46:53;95735.17;;;15.67;43.74
6851;BME280;3464;42.728;23.296;2022-10-19T06:49:19;95739.88;;;15.41;43.86
6851;BME280;3464;42.728;23.296;2022-10-19T06:51:46;95742.42;;;15.35;44.22
6851;BME280;3464;42.728;23.296;2022-10-19T06:54:12;95736.51;;;15.42;44.56
6851;BME280;3464;42.728;23.296;2022-10-19T06:56:39;95736.94;;;15.32;44.79
6851;BME280;3464;42.728;23.296;2022-10-19T06:59:05;95733.14;;;15.25;44.59
6851;BME280;3464;42.728;23.296;2022-10-19T07:01:32;95732.30;;;15.20;44.91
6851;BME280;3464;42.728;23.296;2022-10-19T07:03:59;95721.34;;;15.03;45.23
6851;BME280;3464;42.728;23.296;2022-10-19T07:06:26;95724.67;;;15.30;44.73
6851;BME280;3464;42.728;23.296;2022-10-19T07:08:52;95721.72;;;15.37;45.07
6851;BME280;3464;42.728;23.296;2022-10-19T07:11:19;95726.83;;;14.91;45.88
6851;BME280;3464;42.728;23.296;2022-10-19T07:13:45;95723.05;;;15.01;45.92
6851;BME280;3464;42.728;23.296;2022-10-19T07:16:13;95719.60;;;15.27;45.92
6851;BME280;3464;42.728;23.296;2022-10-19T07:18:39;95720.87;;;15.44;45.20
6851;BME280;3464;42.728;23.296;2022-10-19T07:21:06;95719.47;;;15.79;44.56
6851;BME280;3464;42.728;23.296;2022-10-19T07:23:32;95719.20;;;15.17;45.49
6851;BME280;3464;42.728;23.296;2022-10-19T07:26:02;95714.16;;;15.04;45.54
6851;BME280;3464;42.728;23.296;2022-10-19T07:28:26;95722.59;;;15.19;45.52
6851;BME280;3464;42.728;23.296;2022-10-19T07:30:52;95711.97;;;15.31;45.16
6851;BME280;3464;42.728;23.296;2022-10-19T07:33:19;95712.00;;;15.29;45.38
6851;BME280;3464;42.728;23.296;2022-10-19T07:35:46;95709.91;;;15.15;45.92
6851;BME280;3464;42.728;23.296;2022-10-19T07:38:12;95705.95;;;15.71;44.82
6851;BME280;3464;42.728;23.296;2022-10-19T07:40:39;95696.23;;;15.70;44.65
6851;BME280;3464;42.728;23.296;2022-10-19T07:43:05;95693.11;;;16.06;43.72
6851;BME280;3464;42.728;23.296;2022-10-19T07:45:32;95686.09;;;16.40;43.09
6851;BME280;3464;42.728;23.296;2022-10-19T07:47:59;95680.27;;;16.82;42.75
6851;BME280;3464;42.728;23.296;2022-10-19T07:50:25;95675.16;;;16.85;42.44
6851;BME280;3464;42.728;23.296;2022-10-19T07:52:52;95674.05;;;17.11;42.31
6851;BME280;3464;42.728;23.296;2022-10-19T07:55:18;95670.73;;;17.05;42.18
6851;BME280;3464;42.728;23.296;2022-10-19T07:57:46;95667.41;;;16.97;42.54
6851;BME280;3464;42.728;23.296;2022-10-19T08:00:14;95672.13;;;16.91;42.61
6851;BME280;3464;42.728;23.296;2022-10-19T08:02:40;95671.04;;;16.72;42.90
6851;BME280;3464;42.728;23.296;2022-10-19T08:05:06;95668.77;;;16.36;43.63
6851;BME280;3464;42.728;23.296;2022-10-19T08:07:33;95664.44;;;16.52;43.43
6851;BME280;3464;42.728;23.296;2022-10-19T08:10:00;95653.94;;;16.89;42.94
6851;BME280;3464;42.728;23.296;2022-10-19T08:12:26;95663.75;;;17.24;42.76
6851;BME280;3464;42.728;23.296;2022-10-19T08:14:53;95661.39;;;17.80;42.03
6851;BME280;3464;42.728;23.296;2022-10-19T08:17:20;95650.30;;;17.85;41.78
6851;BME280;3464;42.728;23.296;2022-10-19T08:19:47;95663.16;;;18.08;41.52
6851;BME280;3464;42.728;23.296;2022-10-19T08:22:14;95655.80;;;17.87;41.61
6851;BME280;3464;42.728;23.296;2022-10-19T08:24:40;95655.91;;;18.08;41.39
6851;BME280;3464;42.728;23.296;2022-10-19T08:27:07;95644.89;;;18.39;40.99
6851;BME280;3464;42.728;23.296;2022-10-19T08:29:33;95650.03;;;18.34;41.07
6851;BME280;3464;42.728;23.296;2022-10-19T08:32:00;95643.09;;;18.44;41.31
6851;BME280;3464;42.728;23.296;2022-10-19T08:34:26;95644.47;;;18.35;40.91
6851;BME280;3464;42.728;23.296;2022-10-19T08:36:53;95638.36;;;18.19;41.59
6851;BME280;3464;42.728;23.296;2022-10-19T08:39:19;95636.34;;;18.40;41.56
6851;BME280;3464;42.728;23.296;2022-10-19T08:44:51;95622.53;;;19.03;40.72
6851;BME280;3464;42.728;23.296;2022-10-19T08:47:38;95625.17;;;19.20;40.55
6851;BME280;3464;42.728;23.296;2022-10-19T08:50:04;95620.89;;;19.66;39.96
6851;BME280;3464;42.728;23.296;2022-10-19T08:52:31;95624.08;;;19.95;39.85
6851;BME280;3464;42.728;23.296;2022-10-19T08:54:58;95615.80;;;19.44;39.44
6851;BME280;3464;42.728;23.296;2022-10-19T08:57:33;95613.41;;;19.57;39.85
6851;BME280;3464;42.728;23.296;2022-10-19T09:00:06;95616.20;;;19.45;40.14
6851;BME280;3464;42.728;23.296;2022-10-19T09:02:48;95605.36;;;20.14;39.38
6851;BME280;3464;42.728;23.296;2022-10-19T09:05:23;95602.33;;;19.77;39.05
6851;BME280;3464;42.728;23.296;2022-10-19T09:07:48;95600.28;;;20.13;38.99
6851;BME280;3464;42.728;23.296;2022-10-19T09:10:27;95595.64;;;20.47;38.95
6851;BME280;3464;42.728;23.296;2022-10-19T09:13:02;95601.07;;;20.15;39.16
6851;BME280;3464;42.728;23.296;2022-10-19T09:15:33;95593.42;;;20.83;38.03
6851;BME280;3464;42.728;23.296;2022-10-19T09:17:59;95597.59;;;20.19;38.32
6851;BME280;3464;42.728;23.296;2022-10-19T09:20:28;95599.00;;;20.65;37.89
6851;BME280;3464;42.728;23.296;2022-10-19T09:23:01;95595.37;;;21.22;37.43
6851;BME280;3464;42.728;23.296;2022-10-19T09:25:25;95596.49;;;21.28;37.17
6851;BME280;3464;42.728;23.296;2022-10-19T09:27:57;95594.84;;;21.11;37.62
6851;BME280;3464;42.728;23.296;2022-10-19T09:30:20;95592.88;;;21.35;37.25
6851;BME280;3464;42.728;23.296;2022-10-19T09:32:45;95587.87;;;21.01;37.49
6851;BME280;3464;42.728;23.296;2022-10-19T09:35:32;95588.19;;;21.50;37.62
6851;BME280;3464;42.728;23.296;2022-10-19T09:37:59;95585.88;;;21.42;37.56
6851;BME280;3464;42.728;23.296;2022-10-19T09:40:26;95592.47;;;21.20;37.63
6851;BME280;3464;42.728;23.296;2022-10-19T09:42:52;95585.77;;;21.15;37.29
6851;BME280;3464;42.728;23.296;2022-10-19T09:45:39;95591.12;;;21.52;36.72
6851;BME280;3464;42.728;23.296;2022-10-19T09:48:09;95586.26;;;21.43;36.63
6851;BME280;3464;42.728;23.296;2022-10-19T09:50:31;95584.44;;;21.77;36.28
6851;BME280;3464;42.728;23.296;2022-10-19T09:53:02;95586.06;;;21.80;35.81
6851;BME280;3464;42.728;23.296;2022-10-19T09:55:28;95584.36;;;21.80;35.85
6851;BME280;3464;42.728;23.296;2022-10-19T09:58:08;95583.99;;;21.63;35.86
6851;BME280;3464;42.728;23.296;2022-10-19T10:00:38;95571.92;;;21.81;35.11
6851;BME280;3464;42.728;23.296;2022-10-19T10:03:04;95569.64;;;21.27;35.54
6851;BME280;3464;42.728;23.296;2022-10-19T10:05:32;95569.91;;;21.47;36.24
6851;BME280;3464;42.728;23.296;2022-10-19T10:07:57;95564.00;;;22.16;35.41
6851;BME280;3464;42.728;23.296;2022-10-19T10:10:27;95563.77;;;21.53;35.64
6851;BME280;3464;42.728;23.296;2022-10-19T10:12:52;95559.36;;;21.87;35.03
6851;BME280;3464;42.728;23.296;2022-10-19T10:15:35;95558.77;;;21.48;34.61
6851;BME280;3464;42.728;23.296;2022-10-19T10:18:01;95544.86;;;22.13;34.21
6851;BME280;3464;42.728;23.296;2022-10-19T10:20:29;95545.55;;;22.32;34.32
6851;BME280;3464;42.728;23.296;2022-10-19T10:22:57;95542.84;;;21.96;33.93
6851;BME280;3464;42.728;23.296;2022-10-19T10:25:23;95540.19;;;21.98;33.01
6851;BME280;3464;42.728;23.296;2022-10-19T10:27:54;95531.93;;;22.04;33.64
6851;BME280;3464;42.728;23.296;2022-10-19T10:30:20;95521.09;;;22.60;32.98
6851;BME280;3464;42.728;23.296;2022-10-19T10:32:48;95519.58;;;22.41;32.97
6851;BME280;3464;42.728;23.296;2022-10-19T10:35:31;95514.94;;;22.89;32.26
6851;BME280;3464;42.728;23.296;2022-10-19T10:38:03;95512.83;;;22.89;32.27
6851;BME280;3464;42.728;23.296;2022-10-19T10:40:29;95511.52;;;22.65;32.70
6851;BME280;3464;42.728;23.296;2022-10-19T10:43:00;95505.61;;;22.75;32.60
6851;BME280;3464;42.728;23.296;2022-10-19T10:45:31;95494.67;;;22.44;32.41
6851;BME280;3464;42.728;23.296;2022-10-19T10:47:58;95495.34;;;22.74;31.92
6851;BME280;3464;42.728;23.296;2022-10-19T10:50:25;95494.14;;;22.48;31.97
6851;BME280;3464;42.728;23.296;2022-10-19T10:52:56;95491.63;;;22.45;32.69
6851;BME280;3464;42.728;23.296;2022-10-19T10:55:23;95489.94;;;22.70;32.21
6851;BME280;3464;42.728;23.296;2022-10-19T10:57:50;95482.55;;;22.86;31.50
6851;BME280;3464;42.728;23.296;2022-10-19T11:00:19;95478.30;;;22.85;31.61
6851;BME280;3464;42.728;23.296;2022-10-19T11:02:54;95473.31;;;23.04;31.75
6851;BME280;3464;42.728;23.296;2022-10-19T11:05:27;95477.64;;;22.80;30.60
6851;BME280;3464;42.728;23.296;2022-10-19T11:07:53;95474.39;;;22.86;29.87
6851;BME280;3464;42.728;23.296;2022-10-19T11:10:25;95462.80;;;23.46;29.49
6851;BME280;3464;42.728;23.296;2022-10-19T11:12:55;95463.70;;;23.45;29.56
6851;BME280;3464;42.728;23.296;2022-10-19T11:15:22;95466.96;;;23.49;29.70
6851;BME280;3464;42.728;23.296;2022-10-19T11:17:54;95461.90;;;23.36;29.25
6851;BME280;3464;42.728;23.296;2022-10-19T11:20:17;95460.30;;;23.10;29.77
6851;BME280;3464;42.728;23.296;2022-10-19T11:22:51;95460.69;;;23.34;30.03
6851;BME280;3464;42.728;23.296;2022-10-19T11:25:26;95455.75;;;23.61;29.81
6851;BME280;3464;42.728;23.296;2022-10-19T11:30:25;95456.56;;;23.06;30.58
6851;BME280;3464;42.728;23.296;2022-10-19T11:33:13;95444.14;;;23.18;30.28
6851;BME280;3464;42.728;23.296;2022-10-19T11:35:40;95439.66;;;23.35;30.76
6851;BME280;3464;42.728;23.296;2022-10-19T11:38:22;95434.67;;;23.19;31.05
6851;BME280;3464;42.728;23.296;2022-10-19T11:40:59;95430.05;;;23.61;30.89
6851;BME280;3464;42.728;23.296;2022-10-19T11:43:33;95431.06;;;23.89;30.52
6851;BME280;3464;42.728;23.296;2022-10-19T11:46:14;95421.26;;;23.45;31.28
6851;BME280;3464;42.728;23.296;2022-10-19T11:48:48;95410.24;;;23.85;30.85
6851;BME280;3464;42.728;23.296;2022-10-19T11:51:13;95410.38;;;24.14;30.66
6851;BME280;3464;42.728;23.296;2022-10-19T11:53:46;95406.38;;;24.37;30.63
6851;BME280;3464;42.728;23.296;2022-10-19T11:56:13;95397.63;;;23.90;31.18
6851;BME280;3464;42.728;23.296;2022-10-19T11:59:08;95393.61;;;24.04;30.94
6851;BME280;3464;42.728;23.296;2022-10-19T12:01:40;95401.67;;;24.27;30.84
6851;BME280;3464;42.728;23.296;2022-10-19T12:06:58;95399.00;;;24.28;30.72
6851;BME280;3464;42.728;23.296;2022-10-19T12:09:33;95394.42;;;24.06;30.85
6851;BME280;3464;42.728;23.296;2022-10-19T12:14:49;95397.67;;;24.49;30.46
6851;BME280;3464;42.728;23.296;2022-10-19T12:17:23;95403.16;;;24.52;30.29
6851;BME280;3464;42.728;23.296;2022-10-19T12:19:48;95395.45;;;24.12;30.73
6851;BME280;3464;42.728;23.296;2022-10-19T12:22:16;95403.05;;;23.62;31.34
6851;BME280;3464;42.728;23.296;2022-10-19T12:24:41;95405.44;;;24.18;31.04
6851;BME280;3464;42.728;23.296;2022-10-19T12:27:14;95398.10;;;23.99;30.78
6851;BME280;3464;42.728;23.296;2022-10-19T12:29:44;95402.28;;;24.42;30.66
6851;BME280;3464;42.728;23.296;2022-10-19T12:32:12;95388.83;;;24.06;31.47
6851;BME280;3464;42.728;23.296;2022-10-19T12:34:57;95388.31;;;24.28;31.40
6851;BME280;3464;42.728;23.296;2022-10-19T12:37:38;95385.68;;;24.30;31.52
6851;BME280;3464;42.728;23.296;2022-10-19T12:40:38;95382.20;;;24.59;31.49
6851;BME280;3464;42.728;23.296;2022-10-19T12:43:10;95380.40;;;24.62;31.62
6851;BME280;3464;42.728;23.296;2022-10-19T12:45:35;95373.88;;;24.15;32.02
6851;BME280;3464;42.728;23.296;2022-10-19T12:48:19;95370.84;;;24.15;32.02
6851;BME280;3464;42.728;23.296;2022-10-19T12:51:03;95366.11;;;24.46;31.83
6851;BME280;3464;42.728;23.296;2022-10-19T12:53:34;95370.91;;;24.34;32.11
6851;BME280;3464;42.728;23.296;2022-10-19T12:58:43;95369.38;;;24.00;32.01
6851;BME280;3464;42.728;23.296;2022-10-19T13:01:05;95373.23;;;24.00;32.09
6851;BME280;3464;42.728;23.296;2022-10-19T13:03:34;95364.70;;;24.19;32.06
6851;BME280;3464;42.728;23.296;2022-10-19T13:06:01;95370.86;;;24.25;32.15
6851;BME280;3464;42.728;23.296;2022-10-19T13:08:30;95361.14;;;23.81;32.58
6851;BME280;3464;42.728;23.296;2022-10-19T13:11:04;95363.25;;;24.62;31.83
6851;BME280;3464;42.728;23.296;2022-10-19T13:16:37;95357.14;;;24.93;31.16
6851;BME280;3464;42.728;23.296;2022-10-19T13:19:03;95361.41;;;24.84;31.37
6851;BME280;3464;42.728;23.296;2022-10-19T13:26:46;95361.46;;;24.91;31.63
6851;BME280;3464;42.728;23.296;2022-10-19T13:29:24;95358.47;;;24.73;31.89
6851;BME280;3464;42.728;23.296;2022-10-19T13:31:49;95357.37;;;24.59;31.77
6851;BME280;3464;42.728;23.296;2022-10-19T13:34:17;95352.77;;;24.46;31.94
6851;BME280;3464;42.728;23.296;2022-10-19T13:39:24;95357.96;;;24.45;32.01
6851;BME280;3464;42.728;23.296;2022-10-19T13:41:49;95351.34;;;24.11;31.83
6851;BME280;3464;42.728;23.296;2022-10-19T13:44:19;95353.03;;;24.31;31.85
6851;BME280;3464;42.728;23.296;2022-10-19T13:46:52;95353.52;;;24.58;31.43
6851;BME280;3464;42.728;23.296;2022-10-19T13:49:28;95346.52;;;24.62;31.60
6851;BME280;3464;42.728;23.296;2022-10-19T13:52:22;95343.48;;;24.53;31.77